EGNC/CAX METAR and TAF weather

Enter ICAO airport designator
Station Type Date Time Source
EGNC METAR 2018/01/21 12:20 UTC NOAA

EGNC 211220Z 15007KT 100V200 7000 -DZ -SN BKN009 OVC013 00/00 Q1006


Station Type Date Time Source
EGNC Decoded METAR 2018/01/21 12:20 UTC NOAA

Carlisle, United Kingdom (EGNC) 54-56N 002-57W
Jan 21, 2018 - 07:20 AM EST / 2018.01.21 1220 UTC
Wind: from the SSE (150 degrees) at 8 MPH (7 KT) (direction variable):0
Visibility: 4 mile(s):0
Sky conditions: overcast
Weather: light drizzle; light snow
Temperature: 32 F (0 C)
Windchill: 24 F (-4 C):1
Dew Point: 32 F (0 C)
Relative Humidity: 100%
Pressure (altimeter): 29.71 in. Hg (1006 hPa)
ob: EGNC 211220Z 15007KT 100V200 7000 -DZ -SN BKN009 OVC013 00/00 Q1006
cycle: 12

Station Type Date Time Source
EGNC TAF UTC NOAA

Error!


Example: see airport list